createdAt,value
2023-01-27T12:01:57.556Z,130.00
2023-01-27T12:03:32.710Z,136.50
2023-01-27T12:05:15.637Z,121.50
2023-01-27T12:07:04.755Z,128.50
2023-01-27T12:08:45.072Z,149.00
2023-01-27T12:10:30.175Z,136.25
2023-01-27T12:12:13.939Z,149.00
2023-01-27T12:14:00.480Z,147.50
2023-01-27T12:15:32.984Z,161.25
2023-01-27T12:17:05.122Z,158.25
2023-01-27T12:18:37.254Z,168.75
2023-01-27T12:20:30.837Z,147.50
2023-01-27T12:22:07.369Z,176.50
2023-01-27T12:23:48.690Z,175.75
2023-01-27T12:25:25.540Z,154.75
2023-01-27T12:26:57.716Z,184.00
2023-01-27T12:28:33.400Z,173.25
2023-01-27T12:30:07.193Z,182.50
2023-01-27T12:31:49.235Z,183.00
2023-01-27T12:33:24.837Z,179.25
2023-01-27T12:34:57.170Z,192.50
2023-01-27T12:36:30.354Z,189.50
2023-01-27T12:38:07.853Z,189.25
2023-01-27T12:39:39.714Z,200.00
2023-01-27T12:41:11.561Z,176.75
2023-01-27T12:43:04.455Z,206.50
2023-01-27T12:44:43.358Z,176.00
2023-01-27T12:46:20.453Z,193.25
2023-01-27T12:48:10.835Z,184.50
2023-01-27T12:49:44.919Z,203.50
2023-01-27T12:51:24.226Z,222.33
2023-01-27T12:53:15.691Z,232.67
2023-01-27T12:54:47.703Z,221.33
2023-01-27T12:56:21.818Z,191.25
2023-01-27T12:57:53.694Z,204.75
2023-01-27T12:59:25.720Z,214.75
2023-01-27T13:00:58.332Z,212.00
2023-01-27T13:02:32.942Z,196.00
2023-01-27T13:04:07.387Z,201.50
2023-01-27T13:05:39.895Z,203.00
2023-01-27T13:07:17.240Z,198.00
2023-01-27T13:08:50.372Z,199.25
2023-01-27T13:10:23.664Z,199.50
2023-01-27T13:11:57.276Z,189.00
2023-01-27T13:13:29.930Z,195.00
2023-01-27T13:15:21.656Z,175.25
2023-01-27T13:16:58.529Z,177.25
2023-01-27T13:18:34.164Z,185.25
2023-01-27T13:20:16.483Z,176.00
2023-01-27T13:21:50.264Z,157.50
2023-01-27T13:23:26.855Z,155.25
2023-01-27T13:25:00.680Z,159.75
2023-01-27T13:26:33.554Z,146.00
2023-01-27T13:28:06.348Z,147.75
2023-01-27T13:29:38.385Z,153.75
2023-01-27T13:31:14.152Z,147.50
2023-01-27T13:32:47.729Z,140.75
2023-01-27T13:34:43.458Z,132.00
2023-01-27T13:36:34.188Z,134.75
2023-01-27T13:38:28.605Z,134.50
2023-01-27T13:40:05.058Z,116.00
2023-01-27T13:41:43.895Z,112.80
2023-01-27T13:43:20.102Z,113.80
2023-01-27T13:45:06.000Z,122.80
2023-01-27T13:46:38.519Z,112.40
2023-01-27T13:48:21.491Z,115.80
2023-01-27T13:50:22.213Z,102.00
2023-01-27T13:51:54.286Z,106.75
2023-01-27T13:53:26.436Z,97.75
2023-01-27T13:54:58.537Z,99.50
2023-01-27T13:56:39.396Z,98.25
2023-01-27T13:58:29.305Z,85.00
2023-01-27T14:00:12.486Z,82.00
2023-01-27T14:01:54.516Z,90.50
2023-01-27T14:03:35.757Z,86.25
2023-01-27T14:05:29.276Z,79.25
2023-01-27T14:07:10.524Z,79.25
2023-01-27T14:08:45.669Z,81.50
2023-01-27T14:10:25.881Z,77.50
2023-01-27T14:12:00.418Z,80.75
2023-01-27T14:13:35.799Z,72.75
2023-01-27T14:15:33.159Z,80.00
2023-01-27T14:17:38.937Z,73.75
2023-01-27T14:19:35.632Z,73.75
2023-01-27T14:21:08.368Z,92.00
2023-01-27T14:22:46.355Z,86.00
2023-01-27T14:24:42.617Z,87.00
2023-01-27T14:26:43.553Z,111.50
2023-01-27T14:28:33.635Z,123.75
2023-01-27T14:30:07.970Z,115.75
2023-01-27T14:31:44.925Z,114.00
2023-01-27T14:33:16.756Z,93.50
2023-01-27T14:34:51.716Z,94.75
2023-01-27T14:36:40.575Z,99.75
2023-01-27T14:38:31.177Z,101.75
2023-01-27T14:40:14.291Z,91.75
2023-01-27T14:41:54.215Z,81.50
2023-01-27T14:43:39.637Z,80.50
2023-01-27T14:45:24.361Z,83.25
2023-01-27T14:47:40.597Z,91.50
2023-01-27T14:49:18.758Z,82.00
2023-01-27T14:51:17.833Z,80.00
2023-01-27T14:52:58.932Z,76.75
2023-01-27T14:54:53.632Z,80.00
2023-01-27T14:56:35.315Z,83.50
2023-01-27T14:58:24.863Z,77.75
2023-01-27T15:00:02.671Z,77.50
2023-01-27T15:01:40.531Z,75.75
2023-01-27T15:03:32.960Z,75.75
2023-01-27T15:05:14.089Z,74.00
2023-01-27T15:06:48.132Z,71.75
2023-01-27T15:08:35.635Z,74.00
2023-01-27T15:10:26.857Z,68.75
2023-01-27T15:12:36.172Z,73.75
2023-01-27T15:14:26.535Z,70.75
2023-01-27T15:16:10.797Z,67.40
2023-01-27T15:17:45.574Z,69.80
2023-01-27T15:19:40.035Z,66.60
2023-01-27T15:21:17.930Z,69.50
2023-01-27T15:23:10.991Z,64.60
2023-01-27T15:24:54.357Z,65.00
2023-01-27T15:26:26.966Z,63.60
2023-01-27T15:27:59.022Z,66.00
2023-01-27T15:29:31.097Z,62.60
2023-01-27T15:31:05.676Z,64.60
2023-01-27T15:32:37.823Z,65.00
2023-01-27T15:34:24.610Z,57.20
2023-01-27T15:36:18.197Z,67.40
2023-01-27T15:37:56.893Z,64.20
2023-01-27T15:39:40.997Z,60.40
2023-01-27T15:41:15.466Z,63.60
2023-01-27T15:43:02.601Z,62.80
2023-01-27T15:45:02.229Z,57.00
2023-01-27T15:46:36.115Z,58.40
2023-01-27T15:48:15.485Z,64.80
2023-01-27T15:50:07.768Z,59.80
2023-01-27T15:51:40.121Z,61.40
2023-01-27T15:53:14.046Z,51.00
2023-01-27T15:54:46.360Z,54.80
2023-01-27T15:56:18.682Z,59.60
2023-01-27T15:58:01.990Z,53.60
2023-01-27T15:59:59.110Z,53.60
2023-01-27T16:01:32.964Z,55.40
2023-01-27T16:03:07.261Z,61.60
2023-01-27T16:04:39.235Z,50.20
2023-01-27T16:06:18.099Z,50.40
2023-01-27T16:07:52.615Z,48.80
2023-01-27T16:09:33.276Z,47.00
2023-01-27T16:11:27.303Z,51.20
2023-01-27T16:13:27.012Z,51.60
2023-01-27T16:15:02.200Z,54.20
2023-01-27T16:16:35.200Z,55.60
2023-01-27T16:18:07.545Z,48.00
2023-01-27T16:19:42.966Z,52.40
2023-01-27T16:21:48.104Z,39.40
2023-01-27T16:23:22.866Z,49.60
2023-01-27T16:25:11.687Z,43.00
2023-01-27T16:26:48.527Z,47.40
2023-01-27T16:28:25.221Z,46.00
2023-01-27T16:30:07.422Z,45.20
2023-01-27T16:31:39.712Z,52.40
2023-01-27T16:33:25.253Z,28.60
2023-01-27T16:35:02.319Z,43.00
2023-01-27T16:36:35.327Z,42.40
2023-01-27T16:38:26.880Z,41.20
2023-01-27T16:40:20.956Z,39.60
2023-01-27T16:41:55.514Z,36.40
2023-01-27T16:44:26.314Z,45.00
2023-01-27T16:46:00.656Z,38.20
2023-01-27T16:47:41.921Z,36.40
2023-01-27T16:49:23.287Z,40.20
2023-01-27T16:50:56.867Z,40.40
2023-01-27T16:52:41.865Z,45.80
2023-01-27T16:54:20.807Z,45.00
2023-01-27T16:56:19.973Z,37.20
2023-01-27T16:57:52.303Z,35.60
2023-01-27T16:59:29.487Z,40.20
2023-01-27T17:01:01.722Z,37.80
2023-01-27T17:02:34.223Z,35.60
2023-01-27T17:04:19.129Z,34.80
2023-01-27T17:05:52.624Z,30.80
2023-01-27T17:07:25.183Z,29.00
2023-01-27T17:08:57.163Z,21.60
2023-01-27T17:10:34.916Z,37.00
2023-01-27T17:12:31.347Z,34.20
2023-01-27T17:14:28.542Z,30.80
2023-01-27T17:16:05.129Z,39.60
2023-01-27T17:17:37.605Z,38.00
2023-01-27T17:19:27.993Z,36.20
2023-01-27T17:21:00.233Z,30.80
2023-01-27T17:22:40.362Z,33.40
2023-01-27T17:24:18.591Z,36.80
2023-01-27T17:25:51.047Z,40.80
2023-01-27T17:27:23.901Z,35.60
2023-01-27T17:28:55.760Z,37.00
2023-01-27T17:30:33.663Z,40.80
2023-01-27T17:32:18.897Z,28.40
2023-01-27T17:33:54.240Z,33.00
2023-01-27T17:35:27.838Z,32.60
2023-01-27T17:37:16.362Z,31.80
2023-01-27T17:38:49.512Z,35.80
2023-01-27T17:40:22.872Z,28.00
2023-01-27T17:41:56.011Z,28.20
2023-01-27T17:43:38.571Z,26.40
2023-01-27T17:45:26.734Z,21.80
2023-01-27T17:47:02.547Z,30.60
2023-01-27T17:48:38.917Z,29.80
2023-01-27T17:50:15.996Z,25.40
2023-01-27T17:51:55.793Z,37.40
2023-01-27T17:53:28.783Z,36.60
2023-01-27T17:55:01.113Z,46.40
2023-01-27T17:56:33.654Z,45.80
2023-01-27T17:58:21.518Z,43.40
2023-01-27T18:00:11.598Z,44.20
2023-01-27T18:01:47.594Z,42.60
2023-01-27T18:03:23.517Z,37.00
2023-01-27T18:04:55.907Z,47.00
2023-01-27T18:06:29.823Z,40.80
2023-01-27T18:08:04.075Z,33.40
2023-01-27T18:09:46.236Z,32.40
2023-01-27T18:11:22.443Z,37.80
2023-01-27T18:12:55.309Z,42.20
2023-01-27T18:14:29.898Z,65.40
2023-01-27T18:16:03.858Z,74.25
2023-01-27T18:17:36.384Z,97.75
2023-01-27T18:19:22.610Z,113.00
2023-01-27T18:20:59.997Z,101.00
2023-01-27T18:22:31.989Z,112.40
2023-01-27T18:24:14.778Z,122.80
2023-01-27T18:25:51.341Z,123.50
2023-01-27T18:27:36.725Z,138.75
2023-01-27T18:29:32.071Z,154.00
2023-01-27T18:31:04.452Z,159.50
2023-01-27T18:32:40.640Z,157.75
2023-01-27T18:34:12.449Z,167.00
2023-01-27T18:35:46.864Z,172.75
2023-01-27T18:37:27.489Z,198.50
2023-01-27T18:38:59.445Z,210.75
2023-01-27T18:40:32.328Z,198.75
2023-01-27T18:42:10.947Z,200.75
2023-01-27T18:43:43.218Z,208.25
2023-01-27T18:45:15.509Z,200.75
2023-01-27T18:46:47.722Z,194.75
2023-01-27T18:48:19.722Z,191.50
2023-01-27T18:50:01.495Z,184.50
2023-01-27T18:51:34.310Z,178.75
2023-01-27T18:53:18.608Z,182.25
2023-01-27T18:54:53.512Z,178.75
2023-01-27T18:56:25.453Z,178.75
2023-01-27T18:57:58.395Z,175.50
2023-01-27T18:59:30.301Z,160.75
2023-01-27T19:01:02.262Z,166.00
2023-01-27T19:02:34.234Z,166.25
2023-01-27T19:04:10.593Z,148.00
2023-01-27T19:05:42.537Z,145.25
2023-01-27T19:07:16.081Z,142.75
2023-01-27T19:08:49.618Z,160.50
2023-01-27T19:10:25.234Z,145.75
2023-01-27T19:11:57.653Z,149.00
2023-01-27T19:13:29.566Z,127.00
2023-01-27T19:15:01.451Z,135.25
2023-01-27T19:16:33.853Z,136.75
2023-01-27T19:18:26.470Z,130.00
2023-01-27T19:19:58.419Z,117.50
2023-01-27T19:21:30.564Z,123.00
2023-01-27T19:23:02.783Z,129.25
2023-01-27T19:24:34.757Z,122.00
2023-01-27T19:26:07.983Z,123.75
2023-01-27T19:27:41.458Z,113.50
2023-01-27T19:29:14.554Z,113.00
2023-01-27T19:30:46.531Z,116.60
2023-01-27T19:32:18.491Z,119.25
2023-01-27T19:33:50.579Z,124.50
2023-01-27T19:35:23.731Z,111.60
2023-01-27T19:36:55.684Z,114.80
2023-01-27T19:38:28.863Z,119.80
2023-01-27T19:40:00.907Z,114.40
2023-01-27T19:41:33.031Z,114.40
2023-01-27T19:43:05.695Z,123.25
2023-01-27T19:44:37.693Z,117.20
2023-01-27T19:46:17.035Z,105.00
2023-01-27T19:47:49.676Z,122.00
2023-01-27T19:49:21.596Z,94.20
2023-01-27T19:50:53.532Z,116.40
2023-01-27T19:52:25.346Z,109.00
2023-01-27T19:53:57.267Z,119.80
2023-01-27T19:55:29.194Z,118.20
2023-01-27T19:57:01.605Z,112.60
2023-01-27T19:58:33.460Z,124.40
2023-01-27T20:00:06.562Z,119.80
2023-01-27T20:01:44.166Z,115.00
2023-01-27T20:03:16.169Z,115.80
2023-01-27T20:04:48.063Z,117.80
2023-01-27T20:06:25.202Z,118.80
2023-01-27T20:07:57.735Z,114.20
2023-01-27T20:09:29.981Z,124.40
2023-01-27T20:11:02.052Z,110.20
2023-01-27T20:12:35.024Z,109.60
2023-01-27T20:14:15.272Z,116.80
2023-01-27T20:15:47.360Z,119.00
2023-01-27T20:17:20.055Z,117.00
2023-01-27T20:18:53.758Z,114.60
2023-01-27T20:20:26.629Z,118.00
2023-01-27T20:22:01.439Z,99.60
2023-01-27T20:23:33.750Z,106.40
2023-01-27T20:25:06.550Z,113.60
2023-01-27T20:26:38.782Z,114.20
2023-01-27T20:28:10.939Z,120.80
2023-01-27T20:29:42.918Z,103.00
2023-01-27T20:31:16.489Z,120.00
2023-01-27T20:32:48.703Z,112.00
2023-01-27T20:34:20.794Z,109.60
2023-01-27T20:35:52.778Z,106.20
2023-01-27T20:37:24.949Z,105.20
2023-01-27T20:38:57.179Z,97.00
2023-01-27T20:40:29.439Z,104.40
2023-01-27T20:42:01.516Z,118.60
2023-01-27T20:43:35.743Z,117.20
2023-01-27T20:45:08.549Z,127.00
2023-01-27T20:46:40.789Z,112.80
2023-01-27T20:48:12.823Z,116.40
2023-01-27T20:49:44.787Z,114.60
2023-01-27T20:51:16.858Z,116.00
2023-01-27T20:52:48.850Z,119.20
2023-01-27T20:54:20.816Z,118.80
2023-01-27T20:55:52.704Z,114.80
2023-01-27T20:57:27.340Z,114.40
2023-01-27T20:58:59.424Z,101.40
2023-01-27T21:00:31.369Z,117.60
2023-01-27T21:02:03.311Z,120.40
2023-01-27T21:03:35.668Z,122.20
2023-01-27T21:05:08.385Z,116.80
2023-01-27T21:06:40.308Z,127.25
2023-01-27T21:08:12.628Z,114.60
2023-01-27T21:09:44.446Z,126.00
2023-01-27T21:11:18.594Z,116.75
2023-01-27T21:12:50.622Z,116.60
2023-01-27T21:14:22.637Z,126.00
2023-01-27T21:15:54.641Z,123.20
2023-01-27T21:17:26.915Z,127.80
2023-01-27T21:18:58.727Z,116.80
2023-01-27T21:20:30.766Z,130.75
2023-01-27T21:22:02.699Z,117.00
2023-01-27T21:23:34.684Z,120.50
2023-01-27T21:25:06.788Z,128.00
2023-01-27T21:26:38.780Z,107.80
2023-01-27T21:28:10.614Z,118.20
2023-01-27T21:29:42.514Z,115.60
2023-01-27T21:31:16.566Z,122.75
2023-01-27T21:32:48.469Z,117.40
2023-01-27T21:34:20.602Z,117.00
2023-01-27T21:35:55.584Z,119.80
2023-01-27T21:37:27.483Z,136.75
2023-01-27T21:39:01.686Z,143.25
2023-01-27T21:40:34.761Z,149.25
2023-01-27T21:42:06.673Z,153.50
2023-01-27T21:43:57.500Z,156.00
2023-01-27T21:45:29.307Z,173.00
2023-01-27T21:47:01.176Z,188.00
2023-01-27T21:48:33.098Z,169.25
2023-01-27T21:50:06.395Z,182.50
2023-01-27T21:51:38.301Z,202.75
2023-01-27T21:53:10.654Z,206.00
2023-01-27T21:54:42.605Z,213.25
2023-01-27T21:56:14.476Z,191.25
2023-01-27T21:57:48.639Z,215.75
2023-01-27T21:59:20.453Z,217.25
2023-01-27T22:00:52.306Z,206.25
2023-01-27T22:02:24.356Z,231.75
2023-01-27T22:03:56.337Z,211.50
2023-01-27T22:05:28.945Z,203.75
2023-01-27T22:07:00.794Z,207.67
2023-01-27T22:08:32.988Z,261.67
2023-01-27T22:10:13.692Z,263.33
2023-01-27T22:11:45.685Z,225.67
2023-01-27T22:13:17.595Z,198.00
2023-01-27T22:14:49.665Z,186.00
2023-01-27T22:16:23.274Z,186.00
2023-01-27T22:17:55.737Z,183.75
2023-01-27T22:19:27.634Z,183.75
2023-01-27T22:21:02.659Z,168.00
2023-01-27T22:22:34.534Z,183.75
2023-01-27T22:24:07.111Z,185.75
2023-01-27T22:25:39.026Z,186.00
2023-01-27T22:27:10.897Z,192.50
2023-01-27T22:28:44.042Z,187.50
2023-01-27T22:30:17.795Z,205.25
2023-01-27T22:31:49.676Z,189.00
2023-01-27T22:33:21.595Z,180.25
2023-01-27T22:34:53.493Z,179.75
2023-01-27T22:36:25.502Z,199.00
2023-01-27T22:37:57.274Z,175.00
2023-01-27T22:39:29.212Z,203.00
2023-01-27T22:41:01.063Z,181.50
2023-01-27T22:42:33.344Z,162.75
2023-01-27T22:44:05.438Z,182.50
2023-01-27T22:45:40.670Z,165.75
2023-01-27T22:47:12.539Z,181.75
2023-01-27T22:48:44.388Z,161.50
2023-01-27T22:50:16.527Z,156.75
2023-01-27T22:51:48.921Z,145.00
2023-01-27T22:53:20.779Z,159.25
2023-01-27T22:54:52.586Z,150.75
2023-01-27T22:56:24.467Z,145.00
2023-01-27T22:57:56.298Z,152.00
2023-01-27T22:59:28.239Z,152.00
2023-01-27T23:01:00.145Z,153.50
2023-01-27T23:02:32.078Z,134.00
2023-01-27T23:04:03.946Z,125.00
2023-01-27T23:05:35.818Z,136.25
2023-01-27T23:07:07.674Z,135.75
2023-01-27T23:08:39.495Z,125.00
2023-01-27T23:10:11.512Z,121.75
2023-01-27T23:11:43.411Z,125.50
2023-01-27T23:13:15.520Z,106.00
2023-01-27T23:14:47.361Z,116.80
2023-01-27T23:16:19.323Z,92.40
2023-01-27T23:17:51.182Z,112.80
2023-01-27T23:19:23.175Z,111.60
2023-01-27T23:20:55.042Z,98.40
2023-01-27T23:22:27.054Z,98.75
2023-01-27T23:23:59.047Z,101.50
2023-01-27T23:25:31.015Z,108.75
2023-01-27T23:27:02.856Z,94.80
2023-01-27T23:28:35.017Z,101.00
2023-01-27T23:30:10.771Z,113.80
2023-01-27T23:31:42.729Z,129.20
2023-01-27T23:33:15.242Z,131.50
2023-01-27T23:34:48.075Z,123.75
